Aeroporto :
LOGIN :

Iscrizione | Disclaimer

   EN    FR    IT 

 










Sommario :    VFR   VFR Marginale   IFR   IFR Intensivo   IFR Molto Intensivo
Visibilità : 
Base nubi : 
>= 8 km
>= 3000ft
5 / 8 km
1000 / 3000 ft
1500m / 5 km
500 / 1000 ft
800 / 1500m
200 / 500 ft
< 800m
< 200 ft
Simboli :   Temporali  Nebbia  Neve Forte  Precipitazioni Forti  Vento > 20 kt
SIGMETs :   Varie  Temporali  Ghiacco  Turbolenza  Onda orograficha  Ceneri Vulcaniche







- Altitudine del aeroporto : 26 ft
- Codice IATA : BIA
- Carte del aeroporto


LFKB - Bastia

ULTIMO METAR :
  • 230530Z AUTO 22005KT CAVOK 08/02 Q1024 NOSIG

METARs OBSOLETI :
  • 230500Z AUTO VRB02KT CAVOK 08/02 Q1023 NOSIG
  • 230430Z AUTO 23006KT CAVOK 09/02 Q1023 NOSIG
  • 230400Z AUTO 22006KT CAVOK 08/02 Q1023 NOSIG
  • 230330Z AUTO VRB03KT CAVOK 08/01 Q1024 NOSIG
  • 230300Z AUTO 22005KT CAVOK 10/02 Q1023 NOSIG

TAF TAF LFKB
Valido dal 23 a 03 ore il 24 a 03 ore UTC


230200Z 2303/2403 22004KT CAVOK TX19/2313Z TN07/2304Z
BECMG 2308/2310 04010KT
BECMG 2318/2321 24004KT
ATIS : +33 4 95 59 19 40
Nessun NOTAM noto per questo aeroporto.



MetMap, La meteo Aeronautica in un colpo d'occhio ! - Copyright ORBIFLY Dicembre 2007 - Disclaimer

ORBIFLY MET'MAP TEAM :

Programmazione e sviluppo : Alexandra Zaïnal
Concezione e sviluppo : Baudouin d'Aumeries
Co-Programmazione e sviluppo : Marc-Olivier Méhu
Supporto tecnico e logistico : Manuel Goepfert
Aiuto per la traduzione : Arnaldo La Scala

Contatto : metmap@orbifly.com




FONTI E CREDITI :

   NOAA